sensor_id;sensor_type;location;lat;lon;timestamp;pressure;altitude;pressure_sealevel;temperature
12854;BMP180;6495;51.808;7.478;2022-08-03T00:00:32;101140.00;;;22.90
12854;BMP180;6495;51.808;7.478;2022-08-03T00:02:59;101136.00;;;22.90
12854;BMP180;6495;51.808;7.478;2022-08-03T00:05:28;101142.00;;;22.90
12854;BMP180;6495;51.808;7.478;2022-08-03T00:07:55;101135.00;;;22.90
12854;BMP180;6495;51.808;7.478;2022-08-03T00:10:27;101138.00;;;22.80
12854;BMP180;6495;51.808;7.478;2022-08-03T00:12:55;101134.00;;;22.70
12854;BMP180;6495;51.808;7.478;2022-08-03T00:15:24;101144.00;;;22.80
12854;BMP180;6495;51.808;7.478;2022-08-03T00:17:52;101134.00;;;22.70
12854;BMP180;6495;51.808;7.478;2022-08-03T00:20:20;101132.00;;;22.70
12854;BMP180;6495;51.808;7.478;2022-08-03T00:22:48;101123.00;;;22.70
12854;BMP180;6495;51.808;7.478;2022-08-03T00:25:17;101118.00;;;22.60
12854;BMP180;6495;51.808;7.478;2022-08-03T00:27:47;101116.00;;;22.60
12854;BMP180;6495;51.808;7.478;2022-08-03T00:30:16;101119.00;;;22.50
12854;BMP180;6495;51.808;7.478;2022-08-03T00:32:45;101124.00;;;22.40
12854;BMP180;6495;51.808;7.478;2022-08-03T00:35:14;101127.00;;;22.40
12854;BMP180;6495;51.808;7.478;2022-08-03T00:38:02;101122.00;;;22.40
12854;BMP180;6495;51.808;7.478;2022-08-03T00:40:31;101130.00;;;22.40
12854;BMP180;6495;51.808;7.478;2022-08-03T00:43:04;101117.00;;;22.40
12854;BMP180;6495;51.808;7.478;2022-08-03T00:45:35;101115.00;;;22.30
12854;BMP180;6495;51.808;7.478;2022-08-03T00:48:06;101108.00;;;22.30
12854;BMP180;6495;51.808;7.478;2022-08-03T00:50:54;101109.00;;;22.30
12854;BMP180;6495;51.808;7.478;2022-08-03T00:53:24;101100.00;;;22.30
12854;BMP180;6495;51.808;7.478;2022-08-03T00:55:52;101110.00;;;22.30
12854;BMP180;6495;51.808;7.478;2022-08-03T00:58:21;101106.00;;;22.30
12854;BMP180;6495;51.808;7.478;2022-08-03T01:00:50;101103.00;;;22.30
12854;BMP180;6495;51.808;7.478;2022-08-03T01:03:18;101108.00;;;22.30
12854;BMP180;6495;51.808;7.478;2022-08-03T01:05:57;101111.00;;;22.30
12854;BMP180;6495;51.808;7.478;2022-08-03T01:08:36;101099.00;;;22.20
12854;BMP180;6495;51.808;7.478;2022-08-03T01:11:14;101106.00;;;22.20
12854;BMP180;6495;51.808;7.478;2022-08-03T01:13:56;101107.00;;;22.20
12854;BMP180;6495;51.808;7.478;2022-08-03T01:16:54;101088.00;;;22.20
12854;BMP180;6495;51.808;7.478;2022-08-03T01:19:42;101091.00;;;22.10
12854;BMP180;6495;51.808;7.478;2022-08-03T01:23:14;101099.00;;;22.00
12854;BMP180;6495;51.808;7.478;2022-08-03T01:26:05;101102.00;;;21.90
12854;BMP180;6495;51.808;7.478;2022-08-03T01:28:57;101104.00;;;21.90
12854;BMP180;6495;51.808;7.478;2022-08-03T01:31:31;101104.00;;;21.80
12854;BMP180;6495;51.808;7.478;2022-08-03T01:34:27;101087.00;;;21.80
12854;BMP180;6495;51.808;7.478;2022-08-03T01:37:02;101092.00;;;21.70
12854;BMP180;6495;51.808;7.478;2022-08-03T01:39:36;101096.00;;;21.70
12854;BMP180;6495;51.808;7.478;2022-08-03T01:42:10;101099.00;;;21.80
12854;BMP180;6495;51.808;7.478;2022-08-03T01:44:41;101094.00;;;21.80
12854;BMP180;6495;51.808;7.478;2022-08-03T01:47:14;101092.00;;;21.80
12854;BMP180;6495;51.808;7.478;2022-08-03T01:49:44;101094.00;;;21.80
12854;BMP180;6495;51.808;7.478;2022-08-03T01:52:16;101091.00;;;21.80
12854;BMP180;6495;51.808;7.478;2022-08-03T01:54:49;101087.00;;;21.90
12854;BMP180;6495;51.808;7.478;2022-08-03T01:57:18;101084.00;;;21.90
12854;BMP180;6495;51.808;7.478;2022-08-03T01:59:49;101084.00;;;21.80
12854;BMP180;6495;51.808;7.478;2022-08-03T02:02:19;101086.00;;;21.80
12854;BMP180;6495;51.808;7.478;2022-08-03T02:05:02;101084.00;;;21.80
12854;BMP180;6495;51.808;7.478;2022-08-03T02:07:39;101091.00;;;21.80
12854;BMP180;6495;51.808;7.478;2022-08-03T02:10:10;101095.00;;;21.70
12854;BMP180;6495;51.808;7.478;2022-08-03T02:12:42;101087.00;;;21.70
12854;BMP180;6495;51.808;7.478;2022-08-03T02:15:18;101096.00;;;21.70
12854;BMP180;6495;51.808;7.478;2022-08-03T02:17:49;101092.00;;;21.70
12854;BMP180;6495;51.808;7.478;2022-08-03T02:20:18;101089.00;;;21.80
12854;BMP180;6495;51.808;7.478;2022-08-03T02:22:47;101090.00;;;21.70
12854;BMP180;6495;51.808;7.478;2022-08-03T02:25:15;101093.00;;;21.70
12854;BMP180;6495;51.808;7.478;2022-08-03T02:27:50;101087.00;;;21.70
12854;BMP180;6495;51.808;7.478;2022-08-03T02:30:20;101088.00;;;21.70
12854;BMP180;6495;51.808;7.478;2022-08-03T02:32:55;101085.00;;;21.70
12854;BMP180;6495;51.808;7.478;2022-08-03T02:35:28;101090.00;;;21.70
12854;BMP180;6495;51.808;7.478;2022-08-03T02:38:01;101088.00;;;21.60
12854;BMP180;6495;51.808;7.478;2022-08-03T02:40:31;101076.00;;;21.60
12854;BMP180;6495;51.808;7.478;2022-08-03T02:43:07;101077.00;;;21.50
12854;BMP180;6495;51.808;7.478;2022-08-03T02:45:43;101076.00;;;21.50
12854;BMP180;6495;51.808;7.478;2022-08-03T02:48:17;101084.00;;;21.40
12854;BMP180;6495;51.808;7.478;2022-08-03T02:50:51;101075.00;;;21.30
12854;BMP180;6495;51.808;7.478;2022-08-03T02:53:21;101078.00;;;21.20
12854;BMP180;6495;51.808;7.478;2022-08-03T02:55:50;101074.00;;;21.20
12854;BMP180;6495;51.808;7.478;2022-08-03T02:58:20;101075.00;;;21.10
12854;BMP180;6495;51.808;7.478;2022-08-03T03:00:50;101082.00;;;21.10
12854;BMP180;6495;51.808;7.478;2022-08-03T03:03:21;101081.00;;;21.10
12854;BMP180;6495;51.808;7.478;2022-08-03T03:05:52;101067.00;;;21.00
12854;BMP180;6495;51.808;7.478;2022-08-03T03:08:26;101068.00;;;21.00
12854;BMP180;6495;51.808;7.478;2022-08-03T03:10:58;101070.00;;;20.90
12854;BMP180;6495;51.808;7.478;2022-08-03T03:13:29;101070.00;;;20.90
12854;BMP180;6495;51.808;7.478;2022-08-03T03:16:00;101069.00;;;20.80
12854;BMP180;6495;51.808;7.478;2022-08-03T03:18:33;101075.00;;;20.70
12854;BMP180;6495;51.808;7.478;2022-08-03T03:21:03;101064.00;;;20.60
12854;BMP180;6495;51.808;7.478;2022-08-03T03:23:36;101065.00;;;20.50
12854;BMP180;6495;51.808;7.478;2022-08-03T03:26:06;101069.00;;;20.50
12854;BMP180;6495;51.808;7.478;2022-08-03T03:28:35;101075.00;;;20.50
12854;BMP180;6495;51.808;7.478;2022-08-03T03:31:04;101079.00;;;20.50
12854;BMP180;6495;51.808;7.478;2022-08-03T03:33:35;101072.00;;;20.50
12854;BMP180;6495;51.808;7.478;2022-08-03T03:36:05;101074.00;;;20.50
12854;BMP180;6495;51.808;7.478;2022-08-03T03:38:34;101076.00;;;20.50
12854;BMP180;6495;51.808;7.478;2022-08-03T03:41:03;101081.00;;;20.50
12854;BMP180;6495;51.808;7.478;2022-08-03T03:43:31;101079.00;;;20.40
12854;BMP180;6495;51.808;7.478;2022-08-03T03:46:00;101078.00;;;20.40
12854;BMP180;6495;51.808;7.478;2022-08-03T03:48:28;101073.00;;;20.40
12854;BMP180;6495;51.808;7.478;2022-08-03T03:51:00;101067.00;;;20.40
12854;BMP180;6495;51.808;7.478;2022-08-03T03:53:28;101070.00;;;20.40
12854;BMP180;6495;51.808;7.478;2022-08-03T03:55:56;101072.00;;;20.40
12854;BMP180;6495;51.808;7.478;2022-08-03T03:58:30;101072.00;;;20.40
12854;BMP180;6495;51.808;7.478;2022-08-03T04:00:59;101069.00;;;20.40
12854;BMP180;6495;51.808;7.478;2022-08-03T04:03:27;101066.00;;;20.40
12854;BMP180;6495;51.808;7.478;2022-08-03T04:05:56;101071.00;;;20.30
12854;BMP180;6495;51.808;7.478;2022-08-03T04:08:43;101077.00;;;20.30
12854;BMP180;6495;51.808;7.478;2022-08-03T04:11:48;101072.00;;;20.30
12854;BMP180;6495;51.808;7.478;2022-08-03T04:14:21;101080.00;;;20.30
12854;BMP180;6495;51.808;7.478;2022-08-03T04:16:55;101080.00;;;20.30
12854;BMP180;6495;51.808;7.478;2022-08-03T04:19:30;101076.00;;;20.40
12854;BMP180;6495;51.808;7.478;2022-08-03T04:22:03;101081.00;;;20.30
12854;BMP180;6495;51.808;7.478;2022-08-03T04:24:40;101075.00;;;20.40
12854;BMP180;6495;51.808;7.478;2022-08-03T04:27:14;101078.00;;;20.40
12854;BMP180;6495;51.808;7.478;2022-08-03T04:29:48;101083.00;;;20.40
12854;BMP180;6495;51.808;7.478;2022-08-03T04:32:17;101085.00;;;20.30
12854;BMP180;6495;51.808;7.478;2022-08-03T04:34:46;101079.00;;;20.30
12854;BMP180;6495;51.808;7.478;2022-08-03T04:37:25;101077.00;;;20.30
12854;BMP180;6495;51.808;7.478;2022-08-03T04:40:04;101079.00;;;20.30
12854;BMP180;6495;51.808;7.478;2022-08-03T04:42:35;101077.00;;;20.30
12854;BMP180;6495;51.808;7.478;2022-08-03T04:45:06;101073.00;;;20.30
12854;BMP180;6495;51.808;7.478;2022-08-03T04:47:36;101077.00;;;20.30
12854;BMP180;6495;51.808;7.478;2022-08-03T04:50:06;101078.00;;;20.30
12854;BMP180;6495;51.808;7.478;2022-08-03T04:52:40;101083.00;;;20.30
12854;BMP180;6495;51.808;7.478;2022-08-03T04:55:09;101084.00;;;20.30
12854;BMP180;6495;51.808;7.478;2022-08-03T04:57:38;101085.00;;;20.30
12854;BMP180;6495;51.808;7.478;2022-08-03T05:00:19;101094.00;;;20.30
12854;BMP180;6495;51.808;7.478;2022-08-03T05:02:49;101091.00;;;20.40
12854;BMP180;6495;51.808;7.478;2022-08-03T05:05:20;101090.00;;;20.40
12854;BMP180;6495;51.808;7.478;2022-08-03T05:07:49;101105.00;;;20.50
12854;BMP180;6495;51.808;7.478;2022-08-03T05:10:18;101103.00;;;20.50
12854;BMP180;6495;51.808;7.478;2022-08-03T05:12:47;101100.00;;;20.50
12854;BMP180;6495;51.808;7.478;2022-08-03T05:15:17;101099.00;;;20.60
12854;BMP180;6495;51.808;7.478;2022-08-03T05:17:45;101106.00;;;20.60
12854;BMP180;6495;51.808;7.478;2022-08-03T05:20:13;101101.00;;;20.60
12854;BMP180;6495;51.808;7.478;2022-08-03T05:22:45;101102.00;;;20.60
12854;BMP180;6495;51.808;7.478;2022-08-03T05:25:13;101094.00;;;20.70
12854;BMP180;6495;51.808;7.478;2022-08-03T05:27:48;101084.00;;;20.70
12854;BMP180;6495;51.808;7.478;2022-08-03T05:30:16;101089.00;;;20.70
12854;BMP180;6495;51.808;7.478;2022-08-03T05:33:01;101090.00;;;20.70
12854;BMP180;6495;51.808;7.478;2022-08-03T05:35:31;101095.00;;;20.70
12854;BMP180;6495;51.808;7.478;2022-08-03T05:38:20;101094.00;;;20.80
12854;BMP180;6495;51.808;7.478;2022-08-03T05:41:03;101092.00;;;20.80
12854;BMP180;6495;51.808;7.478;2022-08-03T05:43:51;101101.00;;;20.80
12854;BMP180;6495;51.808;7.478;2022-08-03T05:46:20;101095.00;;;20.80
12854;BMP180;6495;51.808;7.478;2022-08-03T05:48:49;101091.00;;;20.90
12854;BMP180;6495;51.808;7.478;2022-08-03T05:51:17;101100.00;;;21.00
12854;BMP180;6495;51.808;7.478;2022-08-03T05:53:45;101102.00;;;21.10
12854;BMP180;6495;51.808;7.478;2022-08-03T05:56:13;101102.00;;;21.20
12854;BMP180;6495;51.808;7.478;2022-08-03T05:58:44;101107.00;;;21.30
12854;BMP180;6495;51.808;7.478;2022-08-03T06:01:15;101110.00;;;21.40
12854;BMP180;6495;51.808;7.478;2022-08-03T06:03:44;101107.00;;;21.60
12854;BMP180;6495;51.808;7.478;2022-08-03T06:06:12;101117.00;;;21.70
12854;BMP180;6495;51.808;7.478;2022-08-03T06:08:41;101109.00;;;21.80
12854;BMP180;6495;51.808;7.478;2022-08-03T06:11:10;101113.00;;;21.90
12854;BMP180;6495;51.808;7.478;2022-08-03T06:13:39;101109.00;;;22.10
12854;BMP180;6495;51.808;7.478;2022-08-03T06:16:07;101108.00;;;22.10
12854;BMP180;6495;51.808;7.478;2022-08-03T06:18:37;101107.00;;;22.20
12854;BMP180;6495;51.808;7.478;2022-08-03T06:21:06;101110.00;;;22.40
12854;BMP180;6495;51.808;7.478;2022-08-03T06:23:43;101113.00;;;22.50
12854;BMP180;6495;51.808;7.478;2022-08-03T06:26:19;101109.00;;;22.60
12854;BMP180;6495;51.808;7.478;2022-08-03T06:28:47;101105.00;;;22.80
12854;BMP180;6495;51.808;7.478;2022-08-03T06:31:20;101104.00;;;23.00
12854;BMP180;6495;51.808;7.478;2022-08-03T06:33:51;101106.00;;;23.10
12854;BMP180;6495;51.808;7.478;2022-08-03T06:36:39;101110.00;;;23.40
12854;BMP180;6495;51.808;7.478;2022-08-03T06:39:07;101110.00;;;23.50
12854;BMP180;6495;51.808;7.478;2022-08-03T06:41:35;101111.00;;;23.70
12854;BMP180;6495;51.808;7.478;2022-08-03T06:44:10;101107.00;;;23.90
12854;BMP180;6495;51.808;7.478;2022-08-03T06:46:39;101115.00;;;24.10
12854;BMP180;6495;51.808;7.478;2022-08-03T06:49:09;101110.00;;;24.30
12854;BMP180;6495;51.808;7.478;2022-08-03T06:51:37;101112.00;;;24.40
12854;BMP180;6495;51.808;7.478;2022-08-03T06:54:25;101127.00;;;24.60
12854;BMP180;6495;51.808;7.478;2022-08-03T06:56:53;101118.00;;;24.70
12854;BMP180;6495;51.808;7.478;2022-08-03T06:59:21;101116.00;;;24.90
12854;BMP180;6495;51.808;7.478;2022-08-03T07:02:10;101120.00;;;25.00
12854;BMP180;6495;51.808;7.478;2022-08-03T07:04:48;101125.00;;;25.20
12854;BMP180;6495;51.808;7.478;2022-08-03T07:07:16;101122.00;;;25.20
12854;BMP180;6495;51.808;7.478;2022-08-03T07:09:48;101120.00;;;25.30
12854;BMP180;6495;51.808;7.478;2022-08-03T07:12:25;101124.00;;;25.40
12854;BMP180;6495;51.808;7.478;2022-08-03T07:14:55;101124.00;;;25.50
12854;BMP180;6495;51.808;7.478;2022-08-03T07:17:29;101125.00;;;25.70
12854;BMP180;6495;51.808;7.478;2022-08-03T07:20:00;101128.00;;;25.70
12854;BMP180;6495;51.808;7.478;2022-08-03T07:22:28;101136.00;;;25.90
12854;BMP180;6495;51.808;7.478;2022-08-03T07:25:00;101142.00;;;26.00
12854;BMP180;6495;51.808;7.478;2022-08-03T07:27:28;101140.00;;;26.20
12854;BMP180;6495;51.808;7.478;2022-08-03T07:29:57;101142.00;;;26.40
12854;BMP180;6495;51.808;7.478;2022-08-03T07:32:26;101136.00;;;26.60
12854;BMP180;6495;51.808;7.478;2022-08-03T07:34:58;101137.00;;;26.80
12854;BMP180;6495;51.808;7.478;2022-08-03T07:37:28;101134.00;;;26.80
12854;BMP180;6495;51.808;7.478;2022-08-03T07:39:57;101140.00;;;26.90
12854;BMP180;6495;51.808;7.478;2022-08-03T07:42:25;101141.00;;;26.90
12854;BMP180;6495;51.808;7.478;2022-08-03T07:44:54;101145.00;;;27.00
12854;BMP180;6495;51.808;7.478;2022-08-03T07:47:26;101147.00;;;27.10
12854;BMP180;6495;51.808;7.478;2022-08-03T07:50:04;101150.00;;;27.30
12854;BMP180;6495;51.808;7.478;2022-08-03T07:52:35;101148.00;;;27.50
12854;BMP180;6495;51.808;7.478;2022-08-03T07:55:16;101145.00;;;27.70
12854;BMP180;6495;51.808;7.478;2022-08-03T07:57:45;101149.00;;;27.70
12854;BMP180;6495;51.808;7.478;2022-08-03T08:00:17;101148.00;;;27.80
12854;BMP180;6495;51.808;7.478;2022-08-03T08:02:46;101149.00;;;27.80
12854;BMP180;6495;51.808;7.478;2022-08-03T08:05:15;101148.00;;;27.90
12854;BMP180;6495;51.808;7.478;2022-08-03T08:07:44;101146.00;;;28.00
12854;BMP180;6495;51.808;7.478;2022-08-03T08:10:17;101146.00;;;28.00
12854;BMP180;6495;51.808;7.478;2022-08-03T08:12:46;101144.00;;;28.00
12854;BMP180;6495;51.808;7.478;2022-08-03T08:15:14;101143.00;;;28.10
12854;BMP180;6495;51.808;7.478;2022-08-03T08:17:45;101147.00;;;28.20
12854;BMP180;6495;51.808;7.478;2022-08-03T08:20:19;101154.00;;;28.30
12854;BMP180;6495;51.808;7.478;2022-08-03T08:22:55;101151.00;;;28.50
12854;BMP180;6495;51.808;7.478;2022-08-03T08:25:28;101147.00;;;28.60
12854;BMP180;6495;51.808;7.478;2022-08-03T08:27:58;101157.00;;;28.70
12854;BMP180;6495;51.808;7.478;2022-08-03T08:30:48;101154.00;;;28.80
12854;BMP180;6495;51.808;7.478;2022-08-03T08:33:17;101146.00;;;28.90
12854;BMP180;6495;51.808;7.478;2022-08-03T08:35:52;101150.00;;;29.00
12854;BMP180;6495;51.808;7.478;2022-08-03T08:38:21;101151.00;;;29.00
12854;BMP180;6495;51.808;7.478;2022-08-03T08:40:49;101147.00;;;29.00
12854;BMP180;6495;51.808;7.478;2022-08-03T08:43:17;101150.00;;;29.00
12854;BMP180;6495;51.808;7.478;2022-08-03T08:45:48;101151.00;;;29.00
12854;BMP180;6495;51.808;7.478;2022-08-03T08:48:23;101147.00;;;29.00
12854;BMP180;6495;51.808;7.478;2022-08-03T08:50:57;101151.00;;;29.10
12854;BMP180;6495;51.808;7.478;2022-08-03T08:53:28;101157.00;;;29.20
12854;BMP180;6495;51.808;7.478;2022-08-03T08:56:02;101164.00;;;29.20
12854;BMP180;6495;51.808;7.478;2022-08-03T08:58:37;101154.00;;;29.40
12854;BMP180;6495;51.808;7.478;2022-08-03T09:01:12;101154.00;;;29.40
12854;BMP180;6495;51.808;7.478;2022-08-03T09:03:40;101154.00;;;29.50
12854;BMP180;6495;51.808;7.478;2022-08-03T09:06:10;101156.00;;;29.60
12854;BMP180;6495;51.808;7.478;2022-08-03T09:08:38;101158.00;;;29.70
12854;BMP180;6495;51.808;7.478;2022-08-03T09:11:06;101151.00;;;29.80
12854;BMP180;6495;51.808;7.478;2022-08-03T09:13:38;101152.00;;;29.80
12854;BMP180;6495;51.808;7.478;2022-08-03T09:16:12;101155.00;;;29.90
12854;BMP180;6495;51.808;7.478;2022-08-03T09:18:43;101146.00;;;30.00
12854;BMP180;6495;51.808;7.478;2022-08-03T09:21:19;101147.00;;;30.00
12854;BMP180;6495;51.808;7.478;2022-08-03T09:24:00;101151.00;;;29.90
12854;BMP180;6495;51.808;7.478;2022-08-03T09:26:34;101155.00;;;29.90
12854;BMP180;6495;51.808;7.478;2022-08-03T09:29:06;101144.00;;;29.90
12854;BMP180;6495;51.808;7.478;2022-08-03T09:31:43;101146.00;;;30.00
12854;BMP180;6495;51.808;7.478;2022-08-03T09:34:14;101151.00;;;30.00
12854;BMP180;6495;51.808;7.478;2022-08-03T09:36:46;101147.00;;;30.00
12854;BMP180;6495;51.808;7.478;2022-08-03T09:39:17;101143.00;;;30.10
12854;BMP180;6495;51.808;7.478;2022-08-03T09:42:07;101145.00;;;30.10
12854;BMP180;6495;51.808;7.478;2022-08-03T09:44:38;101145.00;;;30.10
12854;BMP180;6495;51.808;7.478;2022-08-03T09:47:09;101143.00;;;30.20
12854;BMP180;6495;51.808;7.478;2022-08-03T09:49:37;101147.00;;;30.20
12854;BMP180;6495;51.808;7.478;2022-08-03T09:52:17;101137.00;;;30.30
12854;BMP180;6495;51.808;7.478;2022-08-03T09:55:09;101144.00;;;30.20
12854;BMP180;6495;51.808;7.478;2022-08-03T09:58:04;101146.00;;;30.30
12854;BMP180;6495;51.808;7.478;2022-08-03T10:00:52;101150.00;;;30.40
12854;BMP180;6495;51.808;7.478;2022-08-03T10:03:22;101148.00;;;30.50
12854;BMP180;6495;51.808;7.478;2022-08-03T10:05:51;101150.00;;;30.50
12854;BMP180;6495;51.808;7.478;2022-08-03T10:08:26;101149.00;;;30.50
12854;BMP180;6495;51.808;7.478;2022-08-03T10:10:57;101151.00;;;30.60
12854;BMP180;6495;51.808;7.478;2022-08-03T10:13:26;101148.00;;;30.70
12854;BMP180;6495;51.808;7.478;2022-08-03T10:15:54;101147.00;;;30.80
12854;BMP180;6495;51.808;7.478;2022-08-03T10:18:42;101147.00;;;30.80
12854;BMP180;6495;51.808;7.478;2022-08-03T10:21:16;101144.00;;;30.90
12854;BMP180;6495;51.808;7.478;2022-08-03T10:23:49;101135.00;;;31.00
12854;BMP180;6495;51.808;7.478;2022-08-03T10:26:21;101146.00;;;31.10
12854;BMP180;6495;51.808;7.478;2022-08-03T10:28:53;101143.00;;;31.10
12854;BMP180;6495;51.808;7.478;2022-08-03T10:31:23;101142.00;;;31.20
12854;BMP180;6495;51.808;7.478;2022-08-03T10:33:56;101134.00;;;31.30
12854;BMP180;6495;51.808;7.478;2022-08-03T10:36:29;101137.00;;;31.30
12854;BMP180;6495;51.808;7.478;2022-08-03T10:39:01;101133.00;;;31.40
12854;BMP180;6495;51.808;7.478;2022-08-03T10:41:45;101133.00;;;31.50
12854;BMP180;6495;51.808;7.478;2022-08-03T10:44:19;101123.00;;;31.60
12854;BMP180;6495;51.808;7.478;2022-08-03T10:46:48;101123.00;;;31.60
12854;BMP180;6495;51.808;7.478;2022-08-03T10:49:18;101124.00;;;31.70
12854;BMP180;6495;51.808;7.478;2022-08-03T10:52:03;101123.00;;;31.80
12854;BMP180;6495;51.808;7.478;2022-08-03T10:54:43;101126.00;;;31.90
12854;BMP180;6495;51.808;7.478;2022-08-03T10:57:48;101120.00;;;31.90
12854;BMP180;6495;51.808;7.478;2022-08-03T11:00:26;101115.00;;;32.00
12854;BMP180;6495;51.808;7.478;2022-08-03T11:03:12;101114.00;;;32.10
12854;BMP180;6495;51.808;7.478;2022-08-03T11:05:42;101105.00;;;32.10
12854;BMP180;6495;51.808;7.478;2022-08-03T11:08:28;101114.00;;;32.20
12854;BMP180;6495;51.808;7.478;2022-08-03T11:11:01;101111.00;;;32.30
12854;BMP180;6495;51.808;7.478;2022-08-03T11:13:30;101114.00;;;32.30
12854;BMP180;6495;51.808;7.478;2022-08-03T11:16:18;101105.00;;;32.30
12854;BMP180;6495;51.808;7.478;2022-08-03T11:18:56;101101.00;;;32.30
12854;BMP180;6495;51.808;7.478;2022-08-03T11:21:57;101106.00;;;32.20
12854;BMP180;6495;51.808;7.478;2022-08-03T11:24:56;101107.00;;;32.30
12854;BMP180;6495;51.808;7.478;2022-08-03T11:27:28;101107.00;;;32.30
12854;BMP180;6495;51.808;7.478;2022-08-03T11:30:03;101105.00;;;32.30
12854;BMP180;6495;51.808;7.478;2022-08-03T11:32:52;101109.00;;;32.40
12854;BMP180;6495;51.808;7.478;2022-08-03T11:35:25;101110.00;;;32.50
12854;BMP180;6495;51.808;7.478;2022-08-03T11:38:11;101106.00;;;32.60
12854;BMP180;6495;51.808;7.478;2022-08-03T11:40:42;101101.00;;;32.70
12854;BMP180;6495;51.808;7.478;2022-08-03T11:43:45;101096.00;;;32.90
12854;BMP180;6495;51.808;7.478;2022-08-03T11:46:14;101100.00;;;33.00
12854;BMP180;6495;51.808;7.478;2022-08-03T11:49:04;101099.00;;;33.00
12854;BMP180;6495;51.808;7.478;2022-08-03T11:51:37;101108.00;;;33.10
12854;BMP180;6495;51.808;7.478;2022-08-03T11:54:07;101110.00;;;33.20
12854;BMP180;6495;51.808;7.478;2022-08-03T11:56:44;101090.00;;;33.20
12854;BMP180;6495;51.808;7.478;2022-08-03T11:59:15;101094.00;;;33.20
12854;BMP180;6495;51.808;7.478;2022-08-03T12:01:48;101100.00;;;33.20
12854;BMP180;6495;51.808;7.478;2022-08-03T12:04:16;101101.00;;;33.10
12854;BMP180;6495;51.808;7.478;2022-08-03T12:06:58;101092.00;;;33.10
12854;BMP180;6495;51.808;7.478;2022-08-03T12:09:26;101100.00;;;33.10
12854;BMP180;6495;51.808;7.478;2022-08-03T12:11:54;101106.00;;;33.20
12854;BMP180;6495;51.808;7.478;2022-08-03T12:14:28;101105.00;;;33.20
12854;BMP180;6495;51.808;7.478;2022-08-03T12:17:16;101106.00;;;33.30
12854;BMP180;6495;51.808;7.478;2022-08-03T12:19:45;101101.00;;;33.30
12854;BMP180;6495;51.808;7.478;2022-08-03T12:22:13;101106.00;;;33.40
12854;BMP180;6495;51.808;7.478;2022-08-03T12:24:43;101092.00;;;33.50
12854;BMP180;6495;51.808;7.478;2022-08-03T12:27:23;101096.00;;;33.60
12854;BMP180;6495;51.808;7.478;2022-08-03T12:29:57;101083.00;;;33.60
12854;BMP180;6495;51.808;7.478;2022-08-03T12:32:28;101090.00;;;33.70
12854;BMP180;6495;51.808;7.478;2022-08-03T12:34:57;101087.00;;;33.70
12854;BMP180;6495;51.808;7.478;2022-08-03T12:37:28;101094.00;;;33.70
12854;BMP180;6495;51.808;7.478;2022-08-03T12:39:58;101088.00;;;33.80
12854;BMP180;6495;51.808;7.478;2022-08-03T12:42:38;101080.00;;;33.80
12854;BMP180;6495;51.808;7.478;2022-08-03T12:45:24;101086.00;;;33.90
12854;BMP180;6495;51.808;7.478;2022-08-03T12:47:58;101082.00;;;33.90
12854;BMP180;6495;51.808;7.478;2022-08-03T12:50:30;101079.00;;;34.00
12854;BMP180;6495;51.808;7.478;2022-08-03T12:52:59;101084.00;;;34.00
12854;BMP180;6495;51.808;7.478;2022-08-03T12:55:29;101075.00;;;34.00
12854;BMP180;6495;51.808;7.478;2022-08-03T12:58:31;101071.00;;;34.00
12854;BMP180;6495;51.808;7.478;2022-08-03T13:01:04;101075.00;;;34.00
12854;BMP180;6495;51.808;7.478;2022-08-03T13:03:41;101072.00;;;33.80
12854;BMP180;6495;51.808;7.478;2022-08-03T13:06:21;101078.00;;;33.90
12854;BMP180;6495;51.808;7.478;2022-08-03T13:09:02;101077.00;;;33.90
12854;BMP180;6495;51.808;7.478;2022-08-03T13:11:31;101070.00;;;33.90
12854;BMP180;6495;51.808;7.478;2022-08-03T13:14:19;101080.00;;;34.00
12854;BMP180;6495;51.808;7.478;2022-08-03T13:16:51;101067.00;;;34.10
12854;BMP180;6495;51.808;7.478;2022-08-03T13:19:19;101072.00;;;34.10
12854;BMP180;6495;51.808;7.478;2022-08-03T13:21:47;101068.00;;;34.10
12854;BMP180;6495;51.808;7.478;2022-08-03T13:24:31;101073.00;;;34.20
12854;BMP180;6495;51.808;7.478;2022-08-03T13:26:59;101064.00;;;34.30
12854;BMP180;6495;51.808;7.478;2022-08-03T13:29:48;101076.00;;;34.30
12854;BMP180;6495;51.808;7.478;2022-08-03T13:32:18;101073.00;;;34.40
12854;BMP180;6495;51.808;7.478;2022-08-03T13:34:46;101069.00;;;34.40
12854;BMP180;6495;51.808;7.478;2022-08-03T13:37:14;101077.00;;;34.40
12854;BMP180;6495;51.808;7.478;2022-08-03T13:39:42;101070.00;;;34.50
12854;BMP180;6495;51.808;7.478;2022-08-03T13:42:27;101066.00;;;34.50
12854;BMP180;6495;51.808;7.478;2022-08-03T13:44:55;101069.00;;;34.50
12854;BMP180;6495;51.808;7.478;2022-08-03T13:47:25;101063.00;;;34.50
12854;BMP180;6495;51.808;7.478;2022-08-03T13:49:54;101071.00;;;34.50
12854;BMP180;6495;51.808;7.478;2022-08-03T13:52:30;101067.00;;;34.60
12854;BMP180;6495;51.808;7.478;2022-08-03T13:54:58;101058.00;;;34.70
12854;BMP180;6495;51.808;7.478;2022-08-03T13:57:26;101052.00;;;34.70
12854;BMP180;6495;51.808;7.478;2022-08-03T14:00:16;101060.00;;;34.70
12854;BMP180;6495;51.808;7.478;2022-08-03T14:02:57;101044.00;;;34.80
12854;BMP180;6495;51.808;7.478;2022-08-03T14:05:42;101044.00;;;34.90
12854;BMP180;6495;51.808;7.478;2022-08-03T14:08:11;101048.00;;;34.90
12854;BMP180;6495;51.808;7.478;2022-08-03T14:10:41;101048.00;;;35.00
12854;BMP180;6495;51.808;7.478;2022-08-03T14:13:11;101047.00;;;35.10
12854;BMP180;6495;51.808;7.478;2022-08-03T14:15:45;101040.00;;;35.20
12854;BMP180;6495;51.808;7.478;2022-08-03T14:18:19;101043.00;;;35.10
12854;BMP180;6495;51.808;7.478;2022-08-03T14:21:01;101038.00;;;35.10
12854;BMP180;6495;51.808;7.478;2022-08-03T14:23:35;101040.00;;;35.10
12854;BMP180;6495;51.808;7.478;2022-08-03T14:26:05;101042.00;;;35.10
12854;BMP180;6495;51.808;7.478;2022-08-03T14:28:34;101041.00;;;35.10
12854;BMP180;6495;51.808;7.478;2022-08-03T14:31:03;101043.00;;;35.10
12854;BMP180;6495;51.808;7.478;2022-08-03T14:33:42;101041.00;;;35.20
12854;BMP180;6495;51.808;7.478;2022-08-03T14:36:10;101040.00;;;35.20
12854;BMP180;6495;51.808;7.478;2022-08-03T14:38:39;101038.00;;;35.30
12854;BMP180;6495;51.808;7.478;2022-08-03T14:41:07;101029.00;;;35.30
12854;BMP180;6495;51.808;7.478;2022-08-03T14:43:46;101030.00;;;35.40
12854;BMP180;6495;51.808;7.478;2022-08-03T14:46:28;101029.00;;;35.50